sensor_id;sensor_type;location;lat;lon;timestamp;temperature;humidity
22471;DHT22;11402;51.374;6.594;2023-02-28T00:00:20;1.60;99.90
22471;DHT22;11402;51.374;6.594;2023-02-28T00:02:46;1.50;99.90
22471;DHT22;11402;51.374;6.594;2023-02-28T00:05:15;1.50;99.90
22471;DHT22;11402;51.374;6.594;2023-02-28T00:07:41;1.60;99.90
22471;DHT22;11402;51.374;6.594;2023-02-28T00:10:09;1.30;99.90
22471;DHT22;11402;51.374;6.594;2023-02-28T00:12:36;1.30;99.90
22471;DHT22;11402;51.374;6.594;2023-02-28T00:15:05;1.40;99.90
22471;DHT22;11402;51.374;6.594;2023-02-28T00:17:31;1.40;99.90
22471;DHT22;11402;51.374;6.594;2023-02-28T00:19:57;1.30;99.90
22471;DHT22;11402;51.374;6.594;2023-02-28T00:22:27;1.30;99.90
22471;DHT22;11402;51.374;6.594;2023-02-28T00:24:52;1.30;99.90
22471;DHT22;11402;51.374;6.594;2023-02-28T00:27:18;1.20;99.90
22471;DHT22;11402;51.374;6.594;2023-02-28T00:29:43;1.20;99.90
22471;DHT22;11402;51.374;6.594;2023-02-28T00:32:11;1.20;99.90
22471;DHT22;11402;51.374;6.594;2023-02-28T00:34:36;1.20;99.90
22471;DHT22;11402;51.374;6.594;2023-02-28T00:37:07;1.40;99.90
22471;DHT22;11402;51.374;6.594;2023-02-28T00:39:35;1.40;99.90
22471;DHT22;11402;51.374;6.594;2023-02-28T00:42:01;1.30;99.90
22471;DHT22;11402;51.374;6.594;2023-02-28T00:44:28;1.30;99.90
22471;DHT22;11402;51.374;6.594;2023-02-28T00:46:53;1.20;99.90
22471;DHT22;11402;51.374;6.594;2023-02-28T00:49:20;1.20;99.90
22471;DHT22;11402;51.374;6.594;2023-02-28T00:51:46;1.20;99.90
22471;DHT22;11402;51.374;6.594;2023-02-28T00:54:11;1.30;99.90
22471;DHT22;11402;51.374;6.594;2023-02-28T00:56:37;1.20;99.90
22471;DHT22;11402;51.374;6.594;2023-02-28T00:59:03;1.20;99.90
22471;DHT22;11402;51.374;6.594;2023-02-28T01:01:28;1.20;99.90
22471;DHT22;11402;51.374;6.594;2023-02-28T01:03:54;1.20;99.90
22471;DHT22;11402;51.374;6.594;2023-02-28T01:06:19;1.30;99.90
22471;DHT22;11402;51.374;6.594;2023-02-28T01:08:45;1.30;99.90
22471;DHT22;11402;51.374;6.594;2023-02-28T01:11:12;1.30;99.90
22471;DHT22;11402;51.374;6.594;2023-02-28T01:13:38;1.40;99.90
22471;DHT22;11402;51.374;6.594;2023-02-28T01:16:04;1.30;99.90
22471;DHT22;11402;51.374;6.594;2023-02-28T01:18:30;1.20;99.90
22471;DHT22;11402;51.374;6.594;2023-02-28T01:20:56;1.20;99.90
22471;DHT22;11402;51.374;6.594;2023-02-28T01:23:22;1.20;99.90
22471;DHT22;11402;51.374;6.594;2023-02-28T01:25:50;1.10;99.90
22471;DHT22;11402;51.374;6.594;2023-02-28T01:28:16;1.10;99.90
22471;DHT22;11402;51.374;6.594;2023-02-28T01:30:41;1.30;99.90
22471;DHT22;11402;51.374;6.594;2023-02-28T01:33:07;1.40;99.90
22471;DHT22;11402;51.374;6.594;2023-02-28T01:35:33;1.40;99.90
22471;DHT22;11402;51.374;6.594;2023-02-28T01:37:59;1.20;99.90
22471;DHT22;11402;51.374;6.594;2023-02-28T01:40:25;0.90;99.90
22471;DHT22;11402;51.374;6.594;2023-02-28T01:42:50;0.90;99.90
22471;DHT22;11402;51.374;6.594;2023-02-28T01:45:29;0.80;99.90
22471;DHT22;11402;51.374;6.594;2023-02-28T01:48:01;0.90;99.90
22471;DHT22;11402;51.374;6.594;2023-02-28T01:50:30;0.80;99.90
22471;DHT22;11402;51.374;6.594;2023-02-28T01:53:01;0.70;99.90
22471;DHT22;11402;51.374;6.594;2023-02-28T01:55:29;0.70;99.90
22471;DHT22;11402;51.374;6.594;2023-02-28T01:57:58;0.60;99.90
22471;DHT22;11402;51.374;6.594;2023-02-28T02:00:26;0.60;99.90
22471;DHT22;11402;51.374;6.594;2023-02-28T02:02:58;0.80;99.90
22471;DHT22;11402;51.374;6.594;2023-02-28T02:05:27;0.70;99.90
22471;DHT22;11402;51.374;6.594;2023-02-28T02:08:01;0.70;99.90
22471;DHT22;11402;51.374;6.594;2023-02-28T02:10:40;1.00;99.90
22471;DHT22;11402;51.374;6.594;2023-02-28T02:18:50;1.10;99.90
22471;DHT22;11402;51.374;6.594;2023-02-28T02:24:33;0.80;99.90
22471;DHT22;11402;51.374;6.594;2023-02-28T02:27:24;0.70;99.90
22471;DHT22;11402;51.374;6.594;2023-02-28T02:30:17;0.50;99.90
22471;DHT22;11402;51.374;6.594;2023-02-28T02:36:10;0.70;99.90
22471;DHT22;11402;51.374;6.594;2023-02-28T02:39:02;0.70;99.90
22471;DHT22;11402;51.374;6.594;2023-02-28T02:41:50;0.50;99.90
22471;DHT22;11402;51.374;6.594;2023-02-28T02:47:20;0.60;99.90
22471;DHT22;11402;51.374;6.594;2023-02-28T02:49:52;0.80;99.90
22471;DHT22;11402;51.374;6.594;2023-02-28T02:52:23;0.80;99.90
22471;DHT22;11402;51.374;6.594;2023-02-28T02:54:52;0.80;99.90
22471;DHT22;11402;51.374;6.594;2023-02-28T02:57:24;0.70;99.90
22471;DHT22;11402;51.374;6.594;2023-02-28T02:59:51;0.70;99.90
22471;DHT22;11402;51.374;6.594;2023-02-28T03:02:20;0.70;99.90
22471;DHT22;11402;51.374;6.594;2023-02-28T03:04:52;0.80;99.90
22471;DHT22;11402;51.374;6.594;2023-02-28T03:07:18;0.90;99.90
22471;DHT22;11402;51.374;6.594;2023-02-28T03:09:51;0.50;99.90
22471;DHT22;11402;51.374;6.594;2023-02-28T03:12:18;0.40;99.90
22471;DHT22;11402;51.374;6.594;2023-02-28T03:17:58;0.30;99.90
22471;DHT22;11402;51.374;6.594;2023-02-28T03:20:48;0.20;99.90
22471;DHT22;11402;51.374;6.594;2023-02-28T03:23:20;0.30;99.90
22471;DHT22;11402;51.374;6.594;2023-02-28T03:25:56;0.40;99.90
22471;DHT22;11402;51.374;6.594;2023-02-28T03:28:44;0.60;99.90
22471;DHT22;11402;51.374;6.594;2023-02-28T03:31:22;0.70;99.90
22471;DHT22;11402;51.374;6.594;2023-02-28T03:36:42;0.70;99.90
22471;DHT22;11402;51.374;6.594;2023-02-28T03:39:15;0.60;99.90
22471;DHT22;11402;51.374;6.594;2023-02-28T03:41:54;0.50;99.90
22471;DHT22;11402;51.374;6.594;2023-02-28T03:44:25;0.20;99.90
22471;DHT22;11402;51.374;6.594;2023-02-28T03:47:07;0.30;99.90
22471;DHT22;11402;51.374;6.594;2023-02-28T03:49:42;0.30;99.90
22471;DHT22;11402;51.374;6.594;2023-02-28T03:52:09;0.60;99.90
22471;DHT22;11402;51.374;6.594;2023-02-28T03:54:41;0.50;99.90
22471;DHT22;11402;51.374;6.594;2023-02-28T03:57:18;0.40;99.90
22471;DHT22;11402;51.374;6.594;2023-02-28T03:59:52;0.50;99.90
22471;DHT22;11402;51.374;6.594;2023-02-28T04:02:19;0.40;99.90
22471;DHT22;11402;51.374;6.594;2023-02-28T04:04:45;0.30;99.90
22471;DHT22;11402;51.374;6.594;2023-02-28T04:07:14;0.40;99.90
22471;DHT22;11402;51.374;6.594;2023-02-28T04:09:40;0.30;99.90
22471;DHT22;11402;51.374;6.594;2023-02-28T04:12:06;0.40;99.90
22471;DHT22;11402;51.374;6.594;2023-02-28T04:14:32;0.50;99.90
22471;DHT22;11402;51.374;6.594;2023-02-28T04:16:58;0.20;99.90
22471;DHT22;11402;51.374;6.594;2023-02-28T04:19:23;0.30;99.90
22471;DHT22;11402;51.374;6.594;2023-02-28T04:21:51;0.30;99.90
22471;DHT22;11402;51.374;6.594;2023-02-28T04:24:21;0.30;99.90
22471;DHT22;11402;51.374;6.594;2023-02-28T04:26:49;0.10;99.90
22471;DHT22;11402;51.374;6.594;2023-02-28T04:29:27;0.20;99.90
22471;DHT22;11402;51.374;6.594;2023-02-28T04:31:54;0.10;99.90
22471;DHT22;11402;51.374;6.594;2023-02-28T04:34:20;0.00;99.90
22471;DHT22;11402;51.374;6.594;2023-02-28T04:36:47;0.10;99.90
22471;DHT22;11402;51.374;6.594;2023-02-28T04:39:15;0.20;99.90
22471;DHT22;11402;51.374;6.594;2023-02-28T04:41:40;0.30;99.90
22471;DHT22;11402;51.374;6.594;2023-02-28T04:44:06;0.10;99.90
22471;DHT22;11402;51.374;6.594;2023-02-28T04:46:32;0.10;99.90
22471;DHT22;11402;51.374;6.594;2023-02-28T04:48:57;0.10;99.90
22471;DHT22;11402;51.374;6.594;2023-02-28T04:51:24;0.00;99.90
22471;DHT22;11402;51.374;6.594;2023-02-28T04:53:50;-0.10;99.90
22471;DHT22;11402;51.374;6.594;2023-02-28T04:56:17;-0.20;99.90
22471;DHT22;11402;51.374;6.594;2023-02-28T04:58:43;-0.10;99.90
22471;DHT22;11402;51.374;6.594;2023-02-28T05:01:23;-0.20;99.90
22471;DHT22;11402;51.374;6.594;2023-02-28T05:03:50;-0.10;99.90
22471;DHT22;11402;51.374;6.594;2023-02-28T05:06:16;0.00;99.90
22471;DHT22;11402;51.374;6.594;2023-02-28T05:08:42;0.00;99.90
22471;DHT22;11402;51.374;6.594;2023-02-28T05:11:14;-0.10;99.90
22471;DHT22;11402;51.374;6.594;2023-02-28T05:13:40;0.00;99.90
22471;DHT22;11402;51.374;6.594;2023-02-28T05:16:06;-0.10;99.90
22471;DHT22;11402;51.374;6.594;2023-02-28T05:18:32;-0.20;99.90
22471;DHT22;11402;51.374;6.594;2023-02-28T05:20:57;-0.30;99.90
22471;DHT22;11402;51.374;6.594;2023-02-28T05:23:23;-0.20;99.90
22471;DHT22;11402;51.374;6.594;2023-02-28T05:25:49;-0.20;99.90
22471;DHT22;11402;51.374;6.594;2023-02-28T05:28:14;-0.20;99.90
22471;DHT22;11402;51.374;6.594;2023-02-28T05:30:40;-0.10;99.90
22471;DHT22;11402;51.374;6.594;2023-02-28T05:33:05;-0.10;99.90
22471;DHT22;11402;51.374;6.594;2023-02-28T05:35:31;-0.10;99.90
22471;DHT22;11402;51.374;6.594;2023-02-28T05:37:57;-0.30;99.90
22471;DHT22;11402;51.374;6.594;2023-02-28T05:40:23;-0.30;99.90
22471;DHT22;11402;51.374;6.594;2023-02-28T05:42:50;-0.30;99.90
22471;DHT22;11402;51.374;6.594;2023-02-28T05:45:16;-0.30;99.90
22471;DHT22;11402;51.374;6.594;2023-02-28T05:47:42;-0.40;99.90
22471;DHT22;11402;51.374;6.594;2023-02-28T05:50:08;-0.30;99.90
22471;DHT22;11402;51.374;6.594;2023-02-28T05:52:36;-0.40;99.90
22471;DHT22;11402;51.374;6.594;2023-02-28T05:55:01;-0.30;99.90
22471;DHT22;11402;51.374;6.594;2023-02-28T05:57:27;-0.30;99.90
22471;DHT22;11402;51.374;6.594;2023-02-28T05:59:52;-0.40;99.90
22471;DHT22;11402;51.374;6.594;2023-02-28T06:02:18;-0.30;99.90
22471;DHT22;11402;51.374;6.594;2023-02-28T06:04:44;-0.30;99.90
22471;DHT22;11402;51.374;6.594;2023-02-28T06:07:10;-0.20;99.90
22471;DHT22;11402;51.374;6.594;2023-02-28T06:09:36;-0.10;99.90
22471;DHT22;11402;51.374;6.594;2023-02-28T06:12:04;0.00;99.90
22471;DHT22;11402;51.374;6.594;2023-02-28T06:14:32;-0.10;99.90
22471;DHT22;11402;51.374;6.594;2023-02-28T06:16:59;0.10;99.90
22471;DHT22;11402;51.374;6.594;2023-02-28T06:19:25;0.10;99.90
22471;DHT22;11402;51.374;6.594;2023-02-28T06:21:51;0.70;99.90
22471;DHT22;11402;51.374;6.594;2023-02-28T06:24:21;0.40;99.90
22471;DHT22;11402;51.374;6.594;2023-02-28T06:26:47;0.70;99.90
22471;DHT22;11402;51.374;6.594;2023-02-28T06:29:13;0.50;99.90
22471;DHT22;11402;51.374;6.594;2023-02-28T06:31:43;0.40;99.90
22471;DHT22;11402;51.374;6.594;2023-02-28T06:34:09;0.20;99.90
22471;DHT22;11402;51.374;6.594;2023-02-28T06:36:40;0.40;99.90
22471;DHT22;11402;51.374;6.594;2023-02-28T06:39:06;0.20;99.90
22471;DHT22;11402;51.374;6.594;2023-02-28T06:41:32;0.10;99.90
22471;DHT22;11402;51.374;6.594;2023-02-28T06:44:10;0.10;99.90
22471;DHT22;11402;51.374;6.594;2023-02-28T06:46:39;-0.10;99.90
22471;DHT22;11402;51.374;6.594;2023-02-28T06:49:05;-0.10;99.90
22471;DHT22;11402;51.374;6.594;2023-02-28T06:51:34;-0.20;99.90
22471;DHT22;11402;51.374;6.594;2023-02-28T06:54:00;-0.30;99.90
22471;DHT22;11402;51.374;6.594;2023-02-28T06:56:25;-0.30;99.90
22471;DHT22;11402;51.374;6.594;2023-02-28T06:58:51;-0.30;99.90
22471;DHT22;11402;51.374;6.594;2023-02-28T07:01:18;-0.30;99.90
22471;DHT22;11402;51.374;6.594;2023-02-28T07:03:44;-0.20;99.90
22471;DHT22;11402;51.374;6.594;2023-02-28T07:06:10;-0.20;99.90
22471;DHT22;11402;51.374;6.594;2023-02-28T07:08:36;-0.10;99.90
22471;DHT22;11402;51.374;6.594;2023-02-28T07:11:02;-0.10;99.90
22471;DHT22;11402;51.374;6.594;2023-02-28T07:13:28;-0.10;99.90
22471;DHT22;11402;51.374;6.594;2023-02-28T07:16:05;0.20;99.90
22471;DHT22;11402;51.374;6.594;2023-02-28T07:18:31;0.50;99.90
22471;DHT22;11402;51.374;6.594;2023-02-28T07:20:57;0.50;99.90
22471;DHT22;11402;51.374;6.594;2023-02-28T07:23:23;0.40;99.90
22471;DHT22;11402;51.374;6.594;2023-02-28T07:25:50;0.30;99.90
22471;DHT22;11402;51.374;6.594;2023-02-28T07:28:15;0.40;99.90
22471;DHT22;11402;51.374;6.594;2023-02-28T07:30:41;0.30;99.90
22471;DHT22;11402;51.374;6.594;2023-02-28T07:33:07;0.30;99.90
22471;DHT22;11402;51.374;6.594;2023-02-28T07:35:33;0.40;99.90
22471;DHT22;11402;51.374;6.594;2023-02-28T07:37:59;0.50;99.90
22471;DHT22;11402;51.374;6.594;2023-02-28T07:40:25;0.60;99.90
22471;DHT22;11402;51.374;6.594;2023-02-28T07:42:50;0.70;99.90
22471;DHT22;11402;51.374;6.594;2023-02-28T07:45:16;0.60;99.90
22471;DHT22;11402;51.374;6.594;2023-02-28T07:47:43;0.70;99.90
22471;DHT22;11402;51.374;6.594;2023-02-28T07:50:11;0.70;99.90
22471;DHT22;11402;51.374;6.594;2023-02-28T07:52:37;0.80;99.90
22471;DHT22;11402;51.374;6.594;2023-02-28T07:55:04;0.80;99.90
22471;DHT22;11402;51.374;6.594;2023-02-28T07:57:30;0.90;99.90
22471;DHT22;11402;51.374;6.594;2023-02-28T07:59:55;1.00;99.90
22471;DHT22;11402;51.374;6.594;2023-02-28T08:02:21;1.00;99.90
22471;DHT22;11402;51.374;6.594;2023-02-28T08:04:46;1.20;99.90
22471;DHT22;11402;51.374;6.594;2023-02-28T08:07:13;1.30;99.90
22471;DHT22;11402;51.374;6.594;2023-02-28T08:09:40;1.30;99.90
22471;DHT22;11402;51.374;6.594;2023-02-28T08:12:07;1.50;99.90
22471;DHT22;11402;51.374;6.594;2023-02-28T08:14:33;1.60;99.90
22471;DHT22;11402;51.374;6.594;2023-02-28T08:16:58;1.70;99.90
22471;DHT22;11402;51.374;6.594;2023-02-28T08:19:24;1.70;99.90
22471;DHT22;11402;51.374;6.594;2023-02-28T08:21:50;1.80;99.90
22471;DHT22;11402;51.374;6.594;2023-02-28T08:24:15;2.00;99.90
22471;DHT22;11402;51.374;6.594;2023-02-28T08:26:41;1.90;99.90
22471;DHT22;11402;51.374;6.594;2023-02-28T08:29:06;2.00;99.90
22471;DHT22;11402;51.374;6.594;2023-02-28T08:31:32;2.10;99.90
22471;DHT22;11402;51.374;6.594;2023-02-28T08:33:58;2.10;99.90
22471;DHT22;11402;51.374;6.594;2023-02-28T08:36:25;2.20;99.90
22471;DHT22;11402;51.374;6.594;2023-02-28T08:38:51;2.30;99.90
22471;DHT22;11402;51.374;6.594;2023-02-28T08:41:17;2.40;99.90
22471;DHT22;11402;51.374;6.594;2023-02-28T08:43:43;2.50;99.90
22471;DHT22;11402;51.374;6.594;2023-02-28T08:46:12;2.60;99.90
22471;DHT22;11402;51.374;6.594;2023-02-28T08:48:38;2.50;99.90
22471;DHT22;11402;51.374;6.594;2023-02-28T08:51:06;2.60;99.90
22471;DHT22;11402;51.374;6.594;2023-02-28T08:53:32;2.60;99.90
22471;DHT22;11402;51.374;6.594;2023-02-28T08:56:07;2.50;99.90
22471;DHT22;11402;51.374;6.594;2023-02-28T08:58:33;2.60;99.90
22471;DHT22;11402;51.374;6.594;2023-02-28T09:01:00;2.70;99.90
22471;DHT22;11402;51.374;6.594;2023-02-28T09:03:26;2.70;99.90
22471;DHT22;11402;51.374;6.594;2023-02-28T09:05:54;2.70;99.90
22471;DHT22;11402;51.374;6.594;2023-02-28T09:08:20;2.90;99.90
22471;DHT22;11402;51.374;6.594;2023-02-28T09:10:46;2.90;99.90
22471;DHT22;11402;51.374;6.594;2023-02-28T09:13:11;2.90;99.90
22471;DHT22;11402;51.374;6.594;2023-02-28T09:15:38;3.00;99.90
22471;DHT22;11402;51.374;6.594;2023-02-28T09:18:04;3.00;99.90
22471;DHT22;11402;51.374;6.594;2023-02-28T09:20:29;3.00;99.90
22471;DHT22;11402;51.374;6.594;2023-02-28T09:22:55;3.00;99.90
22471;DHT22;11402;51.374;6.594;2023-02-28T09:25:20;3.10;99.90
22471;DHT22;11402;51.374;6.594;2023-02-28T09:27:46;3.10;99.90
22471;DHT22;11402;51.374;6.594;2023-02-28T09:30:12;3.20;99.90
22471;DHT22;11402;51.374;6.594;2023-02-28T09:32:38;3.20;99.90
22471;DHT22;11402;51.374;6.594;2023-02-28T09:35:04;3.20;99.90
22471;DHT22;11402;51.374;6.594;2023-02-28T09:37:30;3.30;99.90
22471;DHT22;11402;51.374;6.594;2023-02-28T09:39:56;3.40;99.90
22471;DHT22;11402;51.374;6.594;2023-02-28T09:42:28;3.40;99.90
22471;DHT22;11402;51.374;6.594;2023-02-28T09:44:56;3.50;99.90
22471;DHT22;11402;51.374;6.594;2023-02-28T09:47:27;3.40;99.90
22471;DHT22;11402;51.374;6.594;2023-02-28T09:49:56;3.50;99.90
22471;DHT22;11402;51.374;6.594;2023-02-28T09:52:32;3.50;99.90
22471;DHT22;11402;51.374;6.594;2023-02-28T09:55:26;3.60;99.90
22471;DHT22;11402;51.374;6.594;2023-02-28T09:57:48;3.60;99.90
22471;DHT22;11402;51.374;6.594;2023-02-28T10:00:22;3.60;99.90
22471;DHT22;11402;51.374;6.594;2023-02-28T10:03:24;3.70;99.90
22471;DHT22;11402;51.374;6.594;2023-02-28T10:06:01;3.80;99.90
22471;DHT22;11402;51.374;6.594;2023-02-28T10:08:37;3.80;99.90
22471;DHT22;11402;51.374;6.594;2023-02-28T10:11:09;3.80;99.90
22471;DHT22;11402;51.374;6.594;2023-02-28T10:13:52;3.80;99.90
22471;DHT22;11402;51.374;6.594;2023-02-28T10:19:08;4.00;99.90
22471;DHT22;11402;51.374;6.594;2023-02-28T10:21:42;4.00;99.90
22471;DHT22;11402;51.374;6.594;2023-02-28T10:27:06;4.10;99.90
22471;DHT22;11402;51.374;6.594;2023-02-28T10:29:35;4.10;99.90
22471;DHT22;11402;51.374;6.594;2023-02-28T10:32:02;4.10;99.90
22471;DHT22;11402;51.374;6.594;2023-02-28T10:34:28;4.00;99.90
22471;DHT22;11402;51.374;6.594;2023-02-28T10:36:55;4.00;99.90
22471;DHT22;11402;51.374;6.594;2023-02-28T10:39:41;4.00;99.90
22471;DHT22;11402;51.374;6.594;2023-02-28T10:42:20;4.10;99.90
22471;DHT22;11402;51.374;6.594;2023-02-28T10:44:46;4.20;99.90
22471;DHT22;11402;51.374;6.594;2023-02-28T10:47:19;4.20;99.90
22471;DHT22;11402;51.374;6.594;2023-02-28T10:49:49;4.30;99.90
22471;DHT22;11402;51.374;6.594;2023-02-28T10:52:33;4.40;99.90
22471;DHT22;11402;51.374;6.594;2023-02-28T10:55:24;4.30;99.90
22471;DHT22;11402;51.374;6.594;2023-02-28T10:57:52;4.20;99.90
22471;DHT22;11402;51.374;6.594;2023-02-28T11:00:25;4.20;99.90
22471;DHT22;11402;51.374;6.594;2023-02-28T11:02:51;4.30;99.90
22471;DHT22;11402;51.374;6.594;2023-02-28T11:05:35;4.40;99.90
22471;DHT22;11402;51.374;6.594;2023-02-28T11:08:14;4.30;99.90
22471;DHT22;11402;51.374;6.594;2023-02-28T11:10:48;4.40;99.90
22471;DHT22;11402;51.374;6.594;2023-02-28T11:13:20;4.30;99.90
22471;DHT22;11402;51.374;6.594;2023-02-28T11:15:54;4.30;99.90
22471;DHT22;11402;51.374;6.594;2023-02-28T11:18:24;4.30;99.90
22471;DHT22;11402;51.374;6.594;2023-02-28T11:20:54;4.30;99.90
22471;DHT22;11402;51.374;6.594;2023-02-28T11:23:21;4.30;99.90
22471;DHT22;11402;51.374;6.594;2023-02-28T11:25:52;4.40;99.90
22471;DHT22;11402;51.374;6.594;2023-02-28T11:28:34;4.40;99.90
22471;DHT22;11402;51.374;6.594;2023-02-28T11:33:53;4.40;99.90
22471;DHT22;11402;51.374;6.594;2023-02-28T11:38:45;4.40;99.90
22471;DHT22;11402;51.374;6.594;2023-02-28T11:41:28;4.40;99.90
22471;DHT22;11402;51.374;6.594;2023-02-28T11:44:43;4.30;99.90
22471;DHT22;11402;51.374;6.594;2023-02-28T11:46:58;4.20;99.90
22471;DHT22;11402;51.374;6.594;2023-02-28T11:49:37;4.20;99.90
22471;DHT22;11402;51.374;6.594;2023-02-28T11:52:29;4.10;99.90
22471;DHT22;11402;51.374;6.594;2023-02-28T11:55:11;3.90;99.90
22471;DHT22;11402;51.374;6.594;2023-02-28T12:00:35;4.10;99.90
22471;DHT22;11402;51.374;6.594;2023-02-28T12:05:58;4.20;99.90
22471;DHT22;11402;51.374;6.594;2023-02-28T12:08:58;4.20;99.90
22471;DHT22;11402;51.374;6.594;2023-02-28T12:11:31;4.30;99.90
22471;DHT22;11402;51.374;6.594;2023-02-28T12:19:50;4.60;99.90
22471;DHT22;11402;51.374;6.594;2023-02-28T12:22:29;4.70;99.90
22471;DHT22;11402;51.374;6.594;2023-02-28T12:27:40;4.80;99.90
22471;DHT22;11402;51.374;6.594;2023-02-28T12:30:28;4.80;99.90
22471;DHT22;11402;51.374;6.594;2023-02-28T12:33:11;4.80;99.90
22471;DHT22;11402;51.374;6.594;2023-02-28T12:35:48;4.70;99.90
22471;DHT22;11402;51.374;6.594;2023-02-28T12:38:22;4.60;99.90
22471;DHT22;11402;51.374;6.594;2023-02-28T12:41:00;4.60;99.90
22471;DHT22;11402;51.374;6.594;2023-02-28T12:43:43;4.60;99.90
22471;DHT22;11402;51.374;6.594;2023-02-28T12:46:14;4.70;99.90
22471;DHT22;11402;51.374;6.594;2023-02-28T12:48:45;4.70;99.90
22471;DHT22;11402;51.374;6.594;2023-02-28T12:51:12;4.80;99.90
22471;DHT22;11402;51.374;6.594;2023-02-28T12:54:06;4.80;99.90
22471;DHT22;11402;51.374;6.594;2023-02-28T12:56:53;4.70;99.90
22471;DHT22;11402;51.374;6.594;2023-02-28T12:59:45;4.80;99.90
22471;DHT22;11402;51.374;6.594;2023-02-28T13:10:23;4.90;99.90
22471;DHT22;11402;51.374;6.594;2023-02-28T13:12:51;4.90;99.90
22471;DHT22;11402;51.374;6.594;2023-02-28T13:15:24;4.90;99.90
22471;DHT22;11402;51.374;6.594;2023-02-28T13:17:52;4.90;99.90
22471;DHT22;11402;51.374;6.594;2023-02-28T13:20:35;4.90;99.90
22471;DHT22;11402;51.374;6.594;2023-02-28T13:23:02;4.90;99.90
22471;DHT22;11402;51.374;6.594;2023-02-28T13:28:01;5.10;99.90
22471;DHT22;11402;51.374;6.594;2023-02-28T13:38:45;5.20;99.90
22471;DHT22;11402;51.374;6.594;2023-02-28T13:44:03;5.20;99.90
22471;DHT22;11402;51.374;6.594;2023-02-28T13:46:29;5.10;99.90
22471;DHT22;11402;51.374;6.594;2023-02-28T13:48:54;5.20;99.90
22471;DHT22;11402;51.374;6.594;2023-02-28T13:51:42;5.20;99.90
22471;DHT22;11402;51.374;6.594;2023-02-28T13:54:45;5.20;99.90
22471;DHT22;11402;51.374;6.594;2023-02-28T14:00:42;5.30;99.90
22471;DHT22;11402;51.374;6.594;2023-02-28T14:03:39;5.40;99.90
22471;DHT22;11402;51.374;6.594;2023-02-28T14:06:26;5.30;99.90
22471;DHT22;11402;51.374;6.594;2023-02-28T14:11:29;5.50;99.90
22471;DHT22;11402;51.374;6.594;2023-02-28T14:13:55;5.40;99.90
22471;DHT22;11402;51.374;6.594;2023-02-28T14:16:24;5.40;99.90
22471;DHT22;11402;51.374;6.594;2023-02-28T14:18:55;5.40;99.90
22471;DHT22;11402;51.374;6.594;2023-02-28T14:21:29;5.40;99.90
22471;DHT22;11402;51.374;6.594;2023-02-28T14:38:20;5.50;99.90
22471;DHT22;11402;51.374;6.594;2023-02-28T14:40:49;5.50;99.90
22471;DHT22;11402;51.374;6.594;2023-02-28T14:43:20;5.50;99.90
22471;DHT22;11402;51.374;6.594;2023-02-28T14:45:50;5.50;99.90
22471;DHT22;11402;51.374;6.594;2023-02-28T14:48:17;5.40;99.90
22471;DHT22;11402;51.374;6.594;2023-02-28T14:50:49;5.40;99.90
22471;DHT22;11402;51.374;6.594;2023-02-28T14:53:18;5.50;99.90
22471;DHT22;11402;51.374;6.594;2023-02-28T14:55:46;5.40;99.90
22471;DHT22;11402;51.374;6.594;2023-02-28T14:58:25;5.40;99.90
22471;DHT22;11402;51.374;6.594;2023-02-28T15:00:54;5.40;99.90
22471;DHT22;11402;51.374;6.594;2023-02-28T15:03:27;5.30;99.90
22471;DHT22;11402;51.374;6.594;2023-02-28T15:05:57;5.20;99.90
22471;DHT22;11402;51.374;6.594;2023-02-28T15:08:24;5.30;99.90
22471;DHT22;11402;51.374;6.594;2023-02-28T15:13:24;5.30;99.90
22471;DHT22;11402;51.374;6.594;2023-02-28T15:15:59;5.30;99.90
22471;DHT22;11402;51.374;6.594;2023-02-28T15:18:42;5.30;99.90
22471;DHT22;11402;51.374;6.594;2023-02-28T15:26:42;5.30;99.90
22471;DHT22;11402;51.374;6.594;2023-02-28T15:29:12;5.30;99.90
22471;DHT22;11402;51.374;6.594;2023-02-28T15:31:53;5.20;99.90
22471;DHT22;11402;51.374;6.594;2023-02-28T15:34:37;5.30;99.90
22471;DHT22;11402;51.374;6.594;2023-02-28T15:40:44;5.30;99.90
22471;DHT22;11402;51.374;6.594;2023-02-28T15:43:13;5.30;99.90
22471;DHT22;11402;51.374;6.594;2023-02-28T15:45:58;5.30;99.90
22471;DHT22;11402;51.374;6.594;2023-02-28T15:48:31;5.20;99.90
22471;DHT22;11402;51.374;6.594;2023-02-28T15:51:16;5.20;99.90
22471;DHT22;11402;51.374;6.594;2023-02-28T15:53:58;5.20;99.90
22471;DHT22;11402;51.374;6.594;2023-02-28T15:56:49;5.30;99.90
22471;DHT22;11402;51.374;6.594;2023-02-28T15:59:19;5.30;99.90
22471;DHT22;11402;51.374;6.594;2023-02-28T16:01:45;5.10;99.90
22471;DHT22;11402;51.374;6.594;2023-02-28T16:04:17;5.10;99.90
22471;DHT22;11402;51.374;6.594;2023-02-28T16:09:24;5.00;99.90
22471;DHT22;11402;51.374;6.594;2023-02-28T16:11:55;5.00;99.90
22471;DHT22;11402;51.374;6.594;2023-02-28T16:14:24;5.00;99.90
22471;DHT22;11402;51.374;6.594;2023-02-28T16:16:52;5.10;99.90
22471;DHT22;11402;51.374;6.594;2023-02-28T16:19:19;5.00;99.90
22471;DHT22;11402;51.374;6.594;2023-02-28T16:21:45;4.90;99.90
22471;DHT22;11402;51.374;6.594;2023-02-28T16:24:11;4.90;99.90
22471;DHT22;11402;51.374;6.594;2023-02-28T16:26:38;5.00;99.90
22471;DHT22;11402;51.374;6.594;2023-02-28T16:29:06;5.00;99.90
22471;DHT22;11402;51.374;6.594;2023-02-28T16:31:37;5.10;99.90
22471;DHT22;11402;51.374;6.594;2023-02-28T16:34:03;4.90;99.90
22471;DHT22;11402;51.374;6.594;2023-02-28T16:36:29;4.90;99.90
22471;DHT22;11402;51.374;6.594;2023-02-28T16:38:55;4.80;99.90
22471;DHT22;11402;51.374;6.594;2023-02-28T16:41:24;4.70;99.90
22471;DHT22;11402;51.374;6.594;2023-02-28T16:43:53;4.70;99.90
22471;DHT22;11402;51.374;6.594;2023-02-28T16:46:24;4.70;99.90
22471;DHT22;11402;51.374;6.594;2023-02-28T16:48:50;4.70;99.90
22471;DHT22;11402;51.374;6.594;2023-02-28T16:51:17;4.60;99.90
22471;DHT22;11402;51.374;6.594;2023-02-28T16:53:44;4.60;99.90
22471;DHT22;11402;51.374;6.594;2023-02-28T16:56:17;4.60;99.90
22471;DHT22;11402;51.374;6.594;2023-02-28T16:58:43;4.50;99.90
22471;DHT22;11402;51.374;6.594;2023-02-28T17:01:09;4.60;99.90
22471;DHT22;11402;51.374;6.594;2023-02-28T17:03:34;4.60;99.90
22471;DHT22;11402;51.374;6.594;2023-02-28T17:06:02;4.50;99.90
22471;DHT22;11402;51.374;6.594;2023-02-28T17:08:28;4.50;99.90
22471;DHT22;11402;51.374;6.594;2023-02-28T17:10:55;4.60;99.90
22471;DHT22;11402;51.374;6.594;2023-02-28T17:13:20;4.60;99.90
22471;DHT22;11402;51.374;6.594;2023-02-28T17:15:46;4.50;99.90
22471;DHT22;11402;51.374;6.594;2023-02-28T17:18:15;4.60;99.90
22471;DHT22;11402;51.374;6.594;2023-02-28T17:20:44;4.50;99.90
22471;DHT22;11402;51.374;6.594;2023-02-28T17:23:11;4.60;99.90
22471;DHT22;11402;51.374;6.594;2023-02-28T17:25:36;4.40;99.90
22471;DHT22;11402;51.374;6.594;2023-02-28T17:28:02;4.40;99.90
22471;DHT22;11402;51.374;6.594;2023-02-28T17:30:28;4.30;99.90
22471;DHT22;11402;51.374;6.594;2023-02-28T17:32:55;4.20;99.90
22471;DHT22;11402;51.374;6.594;2023-02-28T17:35:21;4.20;99.90
22471;DHT22;11402;51.374;6.594;2023-02-28T17:37:47;4.40;99.90
22471;DHT22;11402;51.374;6.594;2023-02-28T17:40:20;4.30;99.90
22471;DHT22;11402;51.374;6.594;2023-02-28T17:42:46;4.00;99.90
22471;DHT22;11402;51.374;6.594;2023-02-28T17:45:12;4.00;99.90